createdAt,value
2018-12-13T00:00:57.293Z,6.66
2018-12-13T00:03:27.679Z,6.61
2018-12-13T00:05:56.478Z,6.54
2018-12-13T00:08:28.439Z,6.56
2018-12-13T00:10:57.138Z,6.52
2018-12-13T00:13:29.059Z,6.51
2018-12-13T00:16:01.614Z,6.53
2018-12-13T00:18:35.331Z,6.49
2018-12-13T00:21:09.732Z,6.48
2018-12-13T00:23:40.635Z,6.43
2018-12-13T00:26:10.450Z,6.43
2018-12-13T00:28:48.319Z,6.36
2018-12-13T00:31:17.851Z,6.38
2018-12-13T00:33:46.719Z,6.33
2018-12-13T00:36:15.740Z,6.30
2018-12-13T00:39:01.423Z,6.32
2018-12-13T00:41:36.280Z,6.30
2018-12-13T00:44:04.562Z,6.28
2018-12-13T00:46:38.714Z,6.32
2018-12-13T00:49:20.884Z,6.30
2018-12-13T00:51:51.641Z,6.28
2018-12-13T00:54:21.598Z,6.24
2018-12-13T00:56:50.089Z,6.24
2018-12-13T00:59:19.345Z,6.20
2018-12-13T01:01:49.724Z,6.15
2018-12-13T01:04:20.756Z,6.12
2018-12-13T01:06:50.781Z,6.15
2018-12-13T01:09:20.208Z,6.18
2018-12-13T01:11:48.960Z,6.15
2018-12-13T01:14:17.694Z,6.15
2018-12-13T01:16:48.257Z,6.13
2018-12-13T01:19:20.477Z,6.14
2018-12-13T01:21:49.978Z,6.15
2018-12-13T01:24:19.865Z,6.24
2018-12-13T01:26:50.477Z,6.25
2018-12-13T01:29:20.076Z,6.25
2018-12-13T01:31:51.365Z,6.27
2018-12-13T01:34:21.855Z,6.32
2018-12-13T01:36:52.506Z,6.43
2018-12-13T01:39:26.577Z,6.41
2018-12-13T01:41:57.029Z,6.37
2018-12-13T01:44:29.283Z,6.33
2018-12-13T01:46:59.510Z,6.27
2018-12-13T01:49:29.286Z,6.24
2018-12-13T01:51:59.927Z,6.22
2018-12-13T01:54:31.033Z,6.18
2018-12-13T01:57:01.453Z,6.20
2018-12-13T01:59:39.582Z,6.14
2018-12-13T02:02:15.750Z,6.11
2018-12-13T02:04:50.595Z,6.01
2018-12-13T02:07:26.999Z,5.98
2018-12-13T02:09:59.116Z,5.92
2018-12-13T02:12:28.739Z,5.91
2018-12-13T02:17:38.117Z,5.93
2018-12-13T02:20:09.328Z,5.92
2018-12-13T02:22:39.844Z,5.84
2018-12-13T02:25:10.786Z,5.81
2018-12-13T02:27:42.159Z,5.81
2018-12-13T02:30:15.126Z,5.79
2018-12-13T02:32:51.079Z,5.75
2018-12-13T02:35:21.646Z,5.76
2018-12-13T02:38:02.370Z,5.78
2018-12-13T02:40:34.488Z,5.72
2018-12-13T02:43:03.918Z,5.72
2018-12-13T02:51:33.602Z,5.59
2018-12-13T02:54:04.763Z,5.56
2018-12-13T02:56:33.763Z,5.56
2018-12-13T02:59:02.038Z,5.56
2018-12-13T03:01:30.766Z,5.55
2018-12-13T03:03:59.051Z,5.58
2018-12-13T03:06:27.398Z,5.59
2018-12-13T03:12:08.203Z,5.63
2018-12-13T03:14:40.422Z,5.61
2018-12-13T03:17:09.559Z,5.60
2018-12-13T03:19:38.705Z,5.62
2018-12-13T03:22:07.708Z,5.59
2018-12-13T03:24:38.111Z,5.55
2018-12-13T03:27:07.099Z,5.55
2018-12-13T03:29:36.572Z,5.49
2018-12-13T03:32:06.093Z,5.48
2018-12-13T03:34:35.460Z,5.46
2018-12-13T03:37:04.627Z,5.44
2018-12-13T03:39:34.254Z,5.37
2018-12-13T03:42:04.014Z,5.40
2018-12-13T03:44:32.758Z,5.41
2018-12-13T03:47:01.549Z,5.39
2018-12-13T03:49:29.741Z,5.40
2018-12-13T03:51:58.286Z,5.38
2018-12-13T03:54:26.679Z,5.36
2018-12-13T03:56:55.184Z,5.33
2018-12-13T03:59:23.769Z,5.34
2018-12-13T04:01:52.387Z,5.31
2018-12-13T04:04:20.640Z,5.30
2018-12-13T04:06:50.335Z,5.25
2018-12-13T04:09:18.491Z,5.28
2018-12-13T04:11:46.739Z,5.27
2018-12-13T04:14:15.398Z,5.24
2018-12-13T04:16:47.178Z,5.23
2018-12-13T04:19:15.843Z,5.19
2018-12-13T04:21:44.309Z,5.20
2018-12-13T04:24:12.646Z,5.20
2018-12-13T04:26:41.312Z,5.17
2018-12-13T04:29:20.346Z,5.14
2018-12-13T04:31:49.249Z,5.15
2018-12-13T04:34:20.050Z,5.11
2018-12-13T04:36:50.312Z,5.13
2018-12-13T04:39:20.427Z,5.16
2018-12-13T04:41:49.281Z,5.14
2018-12-13T04:44:20.151Z,5.13
2018-12-13T04:47:11.495Z,5.10
2018-12-13T04:49:45.003Z,5.03
2018-12-13T04:52:13.475Z,5.09
2018-12-13T04:54:42.030Z,5.10
2018-12-13T04:57:10.934Z,5.13
2018-12-13T04:59:43.237Z,5.09
2018-12-13T05:02:13.962Z,5.08
2018-12-13T05:04:42.576Z,5.13
2018-12-13T05:07:13.213Z,5.19
2018-12-13T05:09:43.398Z,5.20
2018-12-13T05:12:12.131Z,5.30
2018-12-13T05:14:40.473Z,5.27
2018-12-13T05:17:10.543Z,5.25
2018-12-13T05:19:39.395Z,5.13
2018-12-13T05:22:07.745Z,5.07
2018-12-13T05:24:36.619Z,5.06
2018-12-13T05:27:04.897Z,5.10
2018-12-13T05:29:34.222Z,5.22
2018-12-13T05:32:03.474Z,5.13
2018-12-13T05:34:32.326Z,5.10
2018-12-13T05:37:00.787Z,5.01
2018-12-13T05:39:32.316Z,5.00
2018-12-13T05:42:00.675Z,4.97
2018-12-13T05:44:28.919Z,4.93
2018-12-13T05:48:09.880Z,4.97
2018-12-13T05:50:38.990Z,5.04
2018-12-13T05:53:08.412Z,4.97
2018-12-13T05:55:38.723Z,4.94
2018-12-13T05:58:07.531Z,4.94
2018-12-13T06:01:59.863Z,4.91
2018-12-13T06:04:28.397Z,4.88
2018-12-13T06:06:58.972Z,4.83
2018-12-13T06:09:30.571Z,4.82
2018-12-13T06:11:59.797Z,4.80
2018-12-13T06:14:32.756Z,4.73
2018-12-13T06:17:04.431Z,4.68
2018-12-13T06:19:33.316Z,4.58
2018-12-13T06:22:01.613Z,4.53
2018-12-13T06:24:34.506Z,4.52
2018-12-13T06:27:04.486Z,4.20
2018-12-13T06:29:41.697Z,4.53
2018-12-13T06:32:07.926Z,4.53
2018-12-13T06:34:36.724Z,4.22
2018-12-13T06:37:04.889Z,4.53
2018-12-13T06:39:35.297Z,4.47
2018-12-13T06:42:05.725Z,4.47
2018-12-13T06:44:37.594Z,4.44
2018-12-13T06:47:08.388Z,4.42
2018-12-13T06:49:39.416Z,4.41
2018-12-13T06:52:09.310Z,4.39
2018-12-13T06:54:39.046Z,4.39
2018-12-13T06:57:09.476Z,4.36
2018-12-13T06:59:38.806Z,4.36
2018-12-13T07:02:08.642Z,4.31
2018-12-13T07:04:38.623Z,4.29
2018-12-13T07:07:07.189Z,4.29
2018-12-13T07:09:35.706Z,4.26
2018-12-13T07:12:04.484Z,4.25
2018-12-13T07:14:37.340Z,4.26
2018-12-13T07:17:05.731Z,4.25
2018-12-13T07:19:35.468Z,2.06
2018-12-13T07:22:05.126Z,4.22
2018-12-13T07:24:39.766Z,4.23
2018-12-13T07:29:33.521Z,4.21
2018-12-13T07:32:02.837Z,4.23
2018-12-13T07:34:31.641Z,4.22
2018-12-13T07:37:00.641Z,4.22
2018-12-13T07:39:29.395Z,4.25
2018-12-13T07:42:03.104Z,4.25
2018-12-13T07:44:33.299Z,4.21
2018-12-13T07:47:02.948Z,4.21
2018-12-13T07:49:35.086Z,4.23
2018-12-13T07:52:08.862Z,4.21
2018-12-13T07:54:42.485Z,4.19
2018-12-13T07:57:12.303Z,4.21
2018-12-13T07:59:52.908Z,4.22
2018-12-13T08:02:24.508Z,4.26
2018-12-13T08:04:53.756Z,4.27
2018-12-13T08:07:25.787Z,4.29
2018-12-13T08:09:54.398Z,4.33
2018-12-13T08:12:29.270Z,4.36
2018-12-13T08:14:57.877Z,4.41
2018-12-13T08:17:34.722Z,4.47
2018-12-13T08:20:04.857Z,4.49
2018-12-13T08:22:38.988Z,4.48
2018-12-13T08:25:07.229Z,4.47
2018-12-13T08:27:44.427Z,4.57
2018-12-13T08:30:20.908Z,4.58
2018-12-13T08:32:49.612Z,4.60
2018-12-13T08:36:20.319Z,4.65
2018-12-13T08:38:48.657Z,4.61
2018-12-13T08:41:16.833Z,4.67
2018-12-13T08:45:57.749Z,4.71
2018-12-13T08:48:29.600Z,4.69
2018-12-13T08:50:59.499Z,4.74
2018-12-13T08:53:28.622Z,4.77
2018-12-13T08:56:09.956Z,4.50
2018-12-13T08:58:40.185Z,4.84
2018-12-13T09:01:10.363Z,4.88
2018-12-13T09:03:38.897Z,4.95
2018-12-13T09:06:19.611Z,5.02
2018-12-13T09:08:49.924Z,5.05
2018-12-13T09:11:19.967Z,5.18
2018-12-13T09:13:50.014Z,5.30
2018-12-13T09:16:20.038Z,5.23
2018-12-13T09:18:54.118Z,5.23
2018-12-13T09:21:24.306Z,5.28
2018-12-13T09:23:54.729Z,5.36
2018-12-13T09:26:26.140Z,5.46
2018-12-13T09:28:56.369Z,5.50
2018-12-13T09:31:26.281Z,5.64
2018-12-13T09:33:55.188Z,5.73
2018-12-13T09:38:18.492Z,6.07
2018-12-13T09:40:47.429Z,7.38
2018-12-13T09:43:23.097Z,9.27
2018-12-13T09:45:52.560Z,10.31
2018-12-13T09:48:21.252Z,11.08
2018-12-13T09:50:51.761Z,11.26
2018-12-13T09:56:11.517Z,8.51
2018-12-13T09:58:40.391Z,10.16
2018-12-13T10:01:12.340Z,11.35
2018-12-13T10:03:42.970Z,11.92
2018-12-13T10:06:12.057Z,12.06
2018-12-13T10:08:46.265Z,12.09
2018-12-13T10:11:13.711Z,11.87
2018-12-13T10:13:44.205Z,12.14
2018-12-13T10:16:15.547Z,11.89
2018-12-13T10:18:48.133Z,12.33
2018-12-13T10:21:24.534Z,12.59
2018-12-13T10:23:55.000Z,12.73
2018-12-13T10:26:24.309Z,12.82
2018-12-13T10:28:54.651Z,12.10
2018-12-13T10:31:28.107Z,12.52
2018-12-13T10:33:58.681Z,12.72
2018-12-13T10:36:28.199Z,12.51
2018-12-13T10:38:56.933Z,11.96
2018-12-13T10:41:27.652Z,12.05
2018-12-13T10:43:56.163Z,12.03
2018-12-13T10:46:28.386Z,12.41
2018-12-13T10:48:56.946Z,12.55
2018-12-13T10:51:25.315Z,11.91
2018-12-13T10:53:54.139Z,11.69
2018-12-13T10:56:22.359Z,11.80
2018-12-13T10:58:51.566Z,12.04
2018-12-13T11:01:26.268Z,11.83
2018-12-13T11:03:56.786Z,11.62
2018-12-13T11:06:30.112Z,11.57
2018-12-13T11:09:09.753Z,11.76
2018-12-13T11:11:46.568Z,11.70
2018-12-13T11:14:24.392Z,10.60
2018-12-13T11:16:54.440Z,9.60
2018-12-13T11:19:22.599Z,9.54
2018-12-13T11:21:50.611Z,9.96
2018-12-13T11:24:23.375Z,9.93
2018-12-13T11:26:52.837Z,9.71
2018-12-13T11:29:30.082Z,9.17
2018-12-13T11:32:01.776Z,9.43
2018-12-13T11:34:32.106Z,9.35
2018-12-13T11:39:47.117Z,9.99
2018-12-13T11:42:19.486Z,9.46
2018-12-13T11:44:49.738Z,9.81
2018-12-13T11:47:26.599Z,10.07
2018-12-13T11:49:55.539Z,10.17
2018-12-13T11:52:25.058Z,9.32
2018-12-13T11:54:54.659Z,8.93
2018-12-13T11:57:25.581Z,8.96
2018-12-13T11:59:54.342Z,9.02
2018-12-13T12:02:26.090Z,8.98
2018-12-13T12:04:55.149Z,9.00
2018-12-13T12:07:27.795Z,9.11
2018-12-13T12:10:00.215Z,8.85
2018-12-13T12:12:33.981Z,9.10
2018-12-13T12:15:04.840Z,8.59
2018-12-13T12:17:35.883Z,9.27
2018-12-13T12:20:05.576Z,9.24
2018-12-13T12:25:11.461Z,9.35
2018-12-13T12:27:43.407Z,9.46
2018-12-13T12:30:32.047Z,9.38
2018-12-13T12:33:02.457Z,9.44
2018-12-13T12:35:35.988Z,9.51
2018-12-13T12:38:11.280Z,9.67
2018-12-13T12:40:49.439Z,10.06
2018-12-13T12:43:19.001Z,9.87
2018-12-13T12:45:49.790Z,9.83
2018-12-13T12:48:19.077Z,9.66
2018-12-13T12:51:02.440Z,9.49
2018-12-13T12:53:39.081Z,9.50
2018-12-13T12:56:13.707Z,9.38
2018-12-13T12:58:49.230Z,9.23
2018-12-13T13:01:18.209Z,9.38
2018-12-13T13:03:47.898Z,9.39
2018-12-13T13:06:21.723Z,9.27
2018-12-13T13:08:50.439Z,9.18
2018-12-13T13:11:20.473Z,9.13
2018-12-13T13:13:50.053Z,9.17
2018-12-13T13:16:18.919Z,9.07
2018-12-13T13:18:47.270Z,8.92
2018-12-13T13:21:16.252Z,8.85
2018-12-13T13:23:47.165Z,8.75
2018-12-13T13:26:15.482Z,8.51
2018-12-13T13:28:44.751Z,8.35
2018-12-13T13:31:13.622Z,8.18
2018-12-13T13:33:43.778Z,7.93
2018-12-13T13:39:11.526Z,7.77
2018-12-13T13:41:41.201Z,7.72
2018-12-13T13:44:12.017Z,7.76
2018-12-13T13:46:53.439Z,7.73
2018-12-13T13:49:24.521Z,7.63
2018-12-13T13:51:54.204Z,7.49
2018-12-13T13:54:23.043Z,7.33
2018-12-13T13:56:52.740Z,7.33
2018-12-13T13:59:27.170Z,7.33
2018-12-13T14:01:56.429Z,7.31
2018-12-13T14:04:25.414Z,7.23
2018-12-13T14:08:06.316Z,7.10
2018-12-13T14:10:38.590Z,7.12
2018-12-13T14:13:10.274Z,7.15
2018-12-13T14:15:39.974Z,7.13
2018-12-13T14:18:11.312Z,7.07
2018-12-13T14:20:41.913Z,7.00
2018-12-13T14:23:10.301Z,7.02
2018-12-13T14:25:38.651Z,6.99
2018-12-13T14:28:14.222Z,6.96
2018-12-13T14:30:46.678Z,6.79
2018-12-13T14:33:22.486Z,6.66
2018-12-13T14:36:00.126Z,6.61
2018-12-13T14:38:29.013Z,6.55
2018-12-13T14:41:03.265Z,6.46
2018-12-13T14:43:34.281Z,6.34
2018-12-13T14:46:05.986Z,6.32
2018-12-13T14:48:41.317Z,6.25
2018-12-13T14:51:22.344Z,6.26
2018-12-13T14:53:51.922Z,6.18
2018-12-13T14:56:20.151Z,6.06
2018-12-13T14:58:49.277Z,6.01
2018-12-13T15:01:31.100Z,5.99
2018-12-13T15:04:00.320Z,5.92
2018-12-13T15:06:31.487Z,5.85
2018-12-13T15:09:00.726Z,5.82
2018-12-13T15:11:33.492Z,5.78
2018-12-13T15:14:11.361Z,5.79
2018-12-13T15:16:41.565Z,5.75
2018-12-13T15:19:19.166Z,5.66
2018-12-13T15:22:28.448Z,5.60
2018-12-13T15:25:03.262Z,5.52
2018-12-13T15:27:31.540Z,5.50
2018-12-13T15:30:06.854Z,5.47
2018-12-13T15:32:35.238Z,5.43
2018-12-13T15:35:04.694Z,5.45
2018-12-13T15:37:37.324Z,5.39
2018-12-13T15:40:07.245Z,5.34
2018-12-13T15:42:39.492Z,5.38
2018-12-13T15:48:02.106Z,5.34
2018-12-13T15:50:33.428Z,5.34
2018-12-13T15:53:03.294Z,5.34
2018-12-13T15:55:40.562Z,5.30
2018-12-13T15:58:13.374Z,5.31
2018-12-13T16:00:45.080Z,5.31
2018-12-13T16:03:17.801Z,5.27
2018-12-13T16:08:59.975Z,5.21
2018-12-13T16:11:31.176Z,5.24
2018-12-13T16:15:22.961Z,4.98
2018-12-13T16:18:04.335Z,5.23
2018-12-13T16:20:41.326Z,5.25
2018-12-13T16:23:24.373Z,5.21
2018-12-13T16:26:01.127Z,5.15
2018-12-13T16:28:33.922Z,5.14
2018-12-13T16:32:19.288Z,5.13
2018-12-13T16:34:48.596Z,5.09
2018-12-13T16:37:18.438Z,5.04
2018-12-13T16:39:47.208Z,5.05
2018-12-13T16:42:26.390Z,5.06
2018-12-13T16:44:57.546Z,5.03
2018-12-13T16:47:26.562Z,5.01
2018-12-13T16:49:54.917Z,5.04
2018-12-13T16:52:23.889Z,5.04
2018-12-13T16:54:52.638Z,5.05
2018-12-13T16:57:21.921Z,5.02
2018-12-13T16:59:52.499Z,5.01
2018-12-13T17:02:25.767Z,4.96
2018-12-13T17:05:03.178Z,4.93
2018-12-13T17:07:29.592Z,4.91
2018-12-13T17:09:59.813Z,4.93
2018-12-13T17:12:29.508Z,4.88
2018-12-13T17:15:07.171Z,4.87
2018-12-13T17:17:37.970Z,4.83
2018-12-13T17:20:12.627Z,4.79
2018-12-13T17:22:45.725Z,4.76
2018-12-13T17:25:17.807Z,4.81
2018-12-13T17:27:52.674Z,4.79
2018-12-13T17:30:22.240Z,4.80
2018-12-13T17:33:03.321Z,4.76
2018-12-13T17:35:35.491Z,4.71
2018-12-13T17:38:11.988Z,4.68
2018-12-13T17:40:47.990Z,4.63
2018-12-13T17:43:21.383Z,4.61
2018-12-13T17:46:16.873Z,4.59
2018-12-13T17:49:04.302Z,4.57
2018-12-13T17:51:36.776Z,4.53
2018-12-13T17:54:09.622Z,4.57
2018-12-13T17:56:52.966Z,4.66
2018-12-13T17:59:22.214Z,4.67
2018-12-13T18:02:46.202Z,4.71
2018-12-13T18:05:21.297Z,4.73
2018-12-13T18:07:56.299Z,4.73
2018-12-13T18:10:32.214Z,4.79
2018-12-13T18:13:00.458Z,4.87
2018-12-13T18:15:34.790Z,4.93
2018-12-13T18:18:04.063Z,5.02
2018-12-13T18:20:33.708Z,5.03
2018-12-13T18:23:14.113Z,5.04
2018-12-13T18:25:48.761Z,5.04
2018-12-13T18:33:35.321Z,5.26
2018-12-13T18:36:03.613Z,5.33
2018-12-13T18:41:14.126Z,5.32
2018-12-13T18:43:42.526Z,5.28
2018-12-13T18:46:22.346Z,5.25
2018-12-13T18:48:59.743Z,5.40
2018-12-13T18:51:29.774Z,5.46
2018-12-13T18:53:58.820Z,5.47
2018-12-13T18:56:29.021Z,5.52
2018-12-13T18:58:58.881Z,5.51
2018-12-13T19:01:46.553Z,5.54
2018-12-13T19:04:23.425Z,5.60
2018-12-13T19:09:53.426Z,5.48
2018-12-13T19:12:25.326Z,5.52
2018-12-13T19:15:09.490Z,5.59
2018-12-13T19:17:39.972Z,5.69
2018-12-13T19:20:46.638Z,5.63
2018-12-13T19:23:31.808Z,5.72
2018-12-13T19:26:17.042Z,5.62
2018-12-13T19:28:53.283Z,5.67
2018-12-13T19:31:29.515Z,5.62
2018-12-13T19:34:04.209Z,5.63
2018-12-13T19:36:33.753Z,5.68
2018-12-13T19:39:08.372Z,5.63
2018-12-13T19:41:51.394Z,5.68
2018-12-13T19:44:27.281Z,5.69
2018-12-13T19:46:58.924Z,5.61
2018-12-13T19:49:36.774Z,5.56
2018-12-13T19:52:08.929Z,5.61
2018-12-13T19:59:32.856Z,5.58
2018-12-13T20:04:56.551Z,5.59
2018-12-13T20:07:50.535Z,5.55
2018-12-13T20:10:40.392Z,5.50
2018-12-13T20:13:26.888Z,5.53
2018-12-13T20:16:29.179Z,5.54
2018-12-13T20:19:04.698Z,5.67
2018-12-13T20:21:40.681Z,5.71
2018-12-13T20:26:57.762Z,5.71
2018-12-13T20:31:48.555Z,5.66
2018-12-13T20:34:20.658Z,5.61
2018-12-13T20:36:55.348Z,5.62
2018-12-13T20:39:28.795Z,5.66
2018-12-13T20:41:59.465Z,5.64
2018-12-13T20:44:29.838Z,5.59
2018-12-13T20:49:21.526Z,5.68
2018-12-13T20:51:50.656Z,5.63
2018-12-13T20:54:23.701Z,5.59
2018-12-13T20:56:52.847Z,5.69
2018-12-13T21:00:46.554Z,5.73
2018-12-13T21:03:15.288Z,5.72
2018-12-13T21:05:43.462Z,5.73
2018-12-13T21:08:12.547Z,5.72
2018-12-13T21:10:45.119Z,5.67
2018-12-13T21:13:13.202Z,5.71
2018-12-13T21:15:44.393Z,5.77
2018-12-13T21:18:16.055Z,5.68
2018-12-13T21:20:45.318Z,5.63
2018-12-13T21:23:15.826Z,5.60
2018-12-13T21:25:45.678Z,5.49
2018-12-13T21:28:16.349Z,5.01
2018-12-13T21:30:51.249Z,5.39
2018-12-13T21:33:20.656Z,5.37
2018-12-13T21:35:53.101Z,5.33
2018-12-13T21:38:23.452Z,5.32
2018-12-13T21:40:51.782Z,5.28
2018-12-13T21:43:24.443Z,5.23
2018-12-13T21:45:53.552Z,5.21
2018-12-13T21:48:22.553Z,5.17
2018-12-13T21:50:50.764Z,5.08
2018-12-13T21:53:19.673Z,5.07
2018-12-13T21:55:49.672Z,5.12
2018-12-13T21:58:19.853Z,5.10
2018-12-13T22:00:51.314Z,5.09
2018-12-13T22:03:19.792Z,5.06
2018-12-13T22:05:49.102Z,5.00
2018-12-13T22:08:21.123Z,5.00
2018-12-13T22:10:51.709Z,5.05
2018-12-13T22:13:21.206Z,5.04
2018-12-13T22:15:50.396Z,5.04
2018-12-13T22:18:19.253Z,5.13
2018-12-13T22:20:55.988Z,5.06
2018-12-13T22:23:26.591Z,4.95
2018-12-13T22:28:43.171Z,4.94
2018-12-13T22:31:24.049Z,5.13
2018-12-13T22:33:53.429Z,5.13
2018-12-13T22:36:22.736Z,5.10
2018-12-13T22:38:52.961Z,5.08
2018-12-13T22:41:26.396Z,5.10
2018-12-13T22:43:55.171Z,5.17
2018-12-13T22:46:29.069Z,5.21
2018-12-13T22:49:04.879Z,5.18
2018-12-13T22:51:34.575Z,5.16
2018-12-13T22:54:05.755Z,5.14
2018-12-13T22:56:42.399Z,5.08
2018-12-13T22:59:13.242Z,5.07
2018-12-13T23:01:41.966Z,5.08
2018-12-13T23:04:11.757Z,5.05
2018-12-13T23:06:40.458Z,5.06
2018-12-13T23:09:23.670Z,5.05
2018-12-13T23:11:59.732Z,5.05
2018-12-13T23:14:33.685Z,5.10
2018-12-13T23:17:04.123Z,5.20
2018-12-13T23:19:42.785Z,5.21
2018-12-13T23:22:12.851Z,5.18
2018-12-13T23:24:45.451Z,5.15
2018-12-13T23:27:14.923Z,5.16
2018-12-13T23:29:43.909Z,5.15
2018-12-13T23:32:26.658Z,5.15
2018-12-13T23:34:58.281Z,5.08
2018-12-13T23:37:33.793Z,5.06
2018-12-13T23:40:08.437Z,5.03
2018-12-13T23:46:44.801Z,5.00
2018-12-13T23:49:18.384Z,4.96
2018-12-13T23:51:53.062Z,4.97
2018-12-13T23:54:21.971Z,4.93
2018-12-13T23:57:02.999Z,4.91
2018-12-13T23:59:33.444Z,4.91
